EZY456 EGGP-EGNS
Flight info
| Callsign | EZY456 |
|---|---|
| Flight time | N/A |
| Altitude | 16000 |
| Route | WAL M146 LUSOD DCT IOM |
| Aircraft | A319/M-SDE3FGHIRWY/LB1 |
Departure
| Time | 2026-05-07 14:58 |
|---|---|
| Airport | Liverpool John Lennon Airport (EGGP) |
Arrival
| Time | N/A |
|---|---|
| Airport | Isle of Man Airport (EGNS) |
| Time | Latitude | Longitude | Altitude | Speed | Heading |
|---|---|---|---|---|---|
| 2026-05-07 14:44 | 53.33661 | -2.85655 | 88 ft | 0 kts | 356° |
| 2026-05-07 14:50 | 53.33660 | -2.85654 | 87 ft | 1 kts | 356° |
| 2026-05-07 14:50 | 53.33647 | -2.85653 | 88 ft | 2 kts | 355° |
| 2026-05-07 14:50 | 53.33628 | -2.85648 | 86 ft | 3 kts | 335° |
| 2026-05-07 14:50 | 53.33614 | -2.85631 | 91 ft | 3 kts | 295° |
| 2026-05-07 14:51 | 53.33610 | -2.85608 | 88 ft | 1 kts | 265° |
| 2026-05-07 14:51 | 53.33610 | -2.85607 | 88 ft | 0 kts | 265° |
| 2026-05-07 14:54 | 53.33610 | -2.85611 | 89 ft | 1 kts | 265° |
| 2026-05-07 14:54 | 53.33608 | -2.85645 | 86 ft | 4 kts | 264° |
| 2026-05-07 14:54 | 53.33604 | -2.85711 | 85 ft | 7 kts | 264° |
| 2026-05-07 14:55 | 53.33599 | -2.85808 | 85 ft | 10 kts | 265° |
| 2026-05-07 14:55 | 53.33586 | -2.85927 | 85 ft | 10 kts | 223° |
| 2026-05-07 14:55 | 53.33507 | -2.85936 | 85 ft | 11 kts | 193° |
| 2026-05-07 14:55 | 53.33479 | -2.86061 | 84 ft | 13 kts | 265° |
| 2026-05-07 14:56 | 53.33473 | -2.86196 | 84 ft | 11 kts | 265° |
| 2026-05-07 14:56 | 53.33468 | -2.86300 | 85 ft | 8 kts | 265° |
| 2026-05-07 14:56 | 53.33463 | -2.86408 | 84 ft | 11 kts | 265° |
| 2026-05-07 14:56 | 53.33456 | -2.86560 | 80 ft | 17 kts | 266° |
| 2026-05-07 14:57 | 53.33408 | -2.86719 | 72 ft | 16 kts | 208° |
| 2026-05-07 14:57 | 53.33314 | -2.86685 | 75 ft | 15 kts | 140° |
| 2026-05-07 14:57 | 53.33293 | -2.86511 | 75 ft | 20 kts | 86° |
| 2026-05-07 14:57 | 53.33323 | -2.85852 | 79 ft | 97 kts | 86° |
| 2026-05-07 14:58 | 53.33391 | -2.84335 | 95 ft | 159 kts | 86° |
| 2026-05-07 14:58 | 53.33472 | -2.82469 | 621 ft | 160 kts | 85° |
| 2026-05-07 14:58 | 53.33630 | -2.80521 | 944 ft | 179 kts | 72° |
| 2026-05-07 14:58 | 53.34136 | -2.78629 | 1411 ft | 180 kts | 45° |
| 2026-05-07 14:59 | 53.35178 | -2.77405 | 1568 ft | 189 kts | 6° |
| 2026-05-07 14:59 | 53.36479 | -2.77506 | 1811 ft | 195 kts | 330° |
| 2026-05-07 14:59 | 53.37543 | -2.78975 | 2376 ft | 209 kts | 297° |
| 2026-05-07 14:59 | 53.37872 | -2.81374 | 3077 ft | 226 kts | 268° |
| 2026-05-07 15:00 | 53.37816 | -2.84065 | 3750 ft | 236 kts | 271° |
| 2026-05-07 15:00 | 53.37915 | -2.86805 | 3939 ft | 236 kts | 275° |
| 2026-05-07 15:00 | 53.38072 | -2.89540 | 3982 ft | 236 kts | 275° |
| 2026-05-07 15:00 | 53.38236 | -2.92259 | 3987 ft | 234 kts | 275° |
| 2026-05-07 15:01 | 53.38387 | -2.94968 | 3989 ft | 233 kts | 274° |
| 2026-05-07 15:01 | 53.38525 | -2.97676 | 3991 ft | 233 kts | 274° |
| 2026-05-07 15:01 | 53.38652 | -3.00392 | 3985 ft | 234 kts | 274° |
| 2026-05-07 15:01 | 53.38772 | -3.03113 | 3990 ft | 235 kts | 274° |
| 2026-05-07 15:02 | 53.38886 | -3.05842 | 3989 ft | 235 kts | 274° |
| 2026-05-07 15:02 | 53.38999 | -3.08574 | 3990 ft | 235 kts | 273° |
| 2026-05-07 15:02 | 53.39121 | -3.11302 | 3989 ft | 235 kts | 276° |
| 2026-05-07 15:02 | 53.39645 | -3.13904 | 3997 ft | 240 kts | 297° |
| 2026-05-07 15:03 | 53.40778 | -3.16093 | 4669 ft | 252 kts | 311° |
| 2026-05-07 15:03 | 53.42008 | -3.18151 | 5878 ft | 249 kts | 310° |
| 2026-05-07 15:03 | 53.43229 | -3.20237 | 6921 ft | 252 kts | 310° |
| 2026-05-07 15:03 | 53.44446 | -3.22330 | 7866 ft | 256 kts | 310° |
| 2026-05-07 15:04 | 53.45696 | -3.24485 | 8808 ft | 260 kts | 310° |
| 2026-05-07 15:04 | 53.46968 | -3.26673 | 9729 ft | 264 kts | 310° |
| 2026-05-07 15:04 | 53.48272 | -3.28913 | 10437 ft | 277 kts | 310° |
| 2026-05-07 15:04 | 53.49675 | -3.31333 | 10783 ft | 301 kts | 310° |
| 2026-05-07 15:05 | 53.51192 | -3.33945 | 11173 ft | 321 kts | 311° |
| 2026-05-07 15:05 | 53.52775 | -3.36659 | 11878 ft | 328 kts | 311° |
| 2026-05-07 15:05 | 53.54386 | -3.39414 | 12652 ft | 333 kts | 311° |
| 2026-05-07 15:05 | 53.56018 | -3.42205 | 13412 ft | 337 kts | 311° |
| 2026-05-07 15:06 | 53.57656 | -3.45053 | 14145 ft | 340 kts | 308° |
| 2026-05-07 15:06 | 53.59079 | -3.48232 | 14858 ft | 342 kts | 302° |
| 2026-05-07 15:06 | 53.60461 | -3.51522 | 15570 ft | 346 kts | 302° |
| 2026-05-07 15:06 | 53.61857 | -3.54855 | 15903 ft | 349 kts | 302° |
| 2026-05-07 15:07 | 53.63270 | -3.58228 | 15998 ft | 359 kts | 302° |
| 2026-05-07 15:07 | 53.64724 | -3.61698 | 16009 ft | 373 kts | 303° |
| 2026-05-07 15:07 | 53.66233 | -3.65287 | 16009 ft | 376 kts | 303° |
| 2026-05-07 15:07 | 53.67748 | -3.68888 | 16009 ft | 377 kts | 303° |
| 2026-05-07 15:08 | 53.69265 | -3.72501 | 16009 ft | 377 kts | 303° |
| 2026-05-07 15:08 | 53.70773 | -3.76113 | 16009 ft | 377 kts | 302° |
| 2026-05-07 15:08 | 53.72286 | -3.79751 | 16009 ft | 377 kts | 302° |
| 2026-05-07 15:08 | 53.73789 | -3.83374 | 16009 ft | 377 kts | 302° |
| 2026-05-07 15:09 | 53.75275 | -3.86958 | 16009 ft | 377 kts | 302° |
| 2026-05-07 15:09 | 53.76781 | -3.90589 | 16009 ft | 377 kts | 302° |
| 2026-05-07 15:09 | 53.78284 | -3.94213 | 16010 ft | 377 kts | 302° |
| 2026-05-07 15:09 | 53.79788 | -3.97842 | 16011 ft | 377 kts | 302° |
| 2026-05-07 15:10 | 53.81286 | -4.01456 | 15830 ft | 371 kts | 302° |
| 2026-05-07 15:10 | 53.82764 | -4.05024 | 15250 ft | 368 kts | 302° |
| 2026-05-07 15:10 | 53.84224 | -4.08561 | 14723 ft | 364 kts | 302° |
| 2026-05-07 15:10 | 53.85659 | -4.12053 | 14181 ft | 359 kts | 302° |
| 2026-05-07 15:11 | 53.87068 | -4.15492 | 13629 ft | 350 kts | 302° |
| 2026-05-07 15:11 | 53.88438 | -4.18835 | 13072 ft | 340 kts | 302° |
| 2026-05-07 15:11 | 53.89767 | -4.22084 | 12528 ft | 332 kts | 302° |
| 2026-05-07 15:11 | 53.91075 | -4.25293 | 11977 ft | 329 kts | 302° |
| 2026-05-07 15:12 | 53.92368 | -4.28465 | 11434 ft | 325 kts | 302° |
| 2026-05-07 15:12 | 53.93645 | -4.31617 | 10898 ft | 321 kts | 300° |
| 2026-05-07 15:12 | 53.94669 | -4.34827 | 10737 ft | 305 kts | 294° |
| 2026-05-07 15:12 | 53.95588 | -4.37985 | 10609 ft | 291 kts | 294° |
| 2026-05-07 15:13 | 53.96470 | -4.40999 | 10482 ft | 279 kts | 294° |
| 2026-05-07 15:13 | 53.97316 | -4.43886 | 10316 ft | 269 kts | 294° |
| 2026-05-07 15:13 | 53.98139 | -4.46698 | 10047 ft | 264 kts | 294° |
| 2026-05-07 15:13 | 53.98948 | -4.49480 | 9863 ft | 261 kts | 294° |
| 2026-05-07 15:14 | 53.99751 | -4.52253 | 9750 ft | 261 kts | 294° |
| 2026-05-07 15:14 | 54.00557 | -4.55030 | 9618 ft | 260 kts | 294° |
| 2026-05-07 15:14 | 54.01358 | -4.57795 | 9322 ft | 262 kts | 293° |
| 2026-05-07 15:14 | 54.02148 | -4.60544 | 8830 ft | 260 kts | 293° |
| 2026-05-07 15:15 | 54.02933 | -4.63280 | 8301 ft | 255 kts | 293° |
| 2026-05-07 15:15 | 54.03710 | -4.65974 | 7783 ft | 253 kts | 293° |
| 2026-05-07 15:15 | 54.04492 | -4.68677 | 7276 ft | 255 kts | 293° |
| 2026-05-07 15:15 | 54.05305 | -4.71349 | 6863 ft | 254 kts | 299° |
| 2026-05-07 15:16 | 54.06607 | -4.73406 | 6299 ft | 260 kts | 326° |
| 2026-05-07 15:16 | 54.08364 | -4.74199 | 5740 ft | 268 kts | 354° |
| 2026-05-07 15:16 | 54.10197 | -4.73447 | 5264 ft | 280 kts | 24° |
| 2026-05-07 15:16 | 54.11623 | -4.71159 | 4769 ft | 289 kts | 57° |
| 2026-05-07 15:17 | 54.12174 | -4.67887 | 4252 ft | 292 kts | 91° |
| 2026-05-07 15:17 | 54.11664 | -4.64597 | 3739 ft | 287 kts | 125° |
| 2026-05-07 15:17 | 54.10489 | -4.61904 | 3346 ft | 278 kts | 129° |
| 2026-05-07 15:17 | 54.09656 | -4.59083 | 3276 ft | 257 kts | 109° |
| 2026-05-07 15:18 | 54.09356 | -4.56187 | 3236 ft | 242 kts | 91° |
| 2026-05-07 15:18 | 54.09504 | -4.53451 | 3176 ft | 225 kts | 77° |
| 2026-05-07 15:18 | 54.09816 | -4.50923 | 3081 ft | 212 kts | 77° |
| 2026-05-07 15:18 | 54.10097 | -4.48558 | 3003 ft | 195 kts | 77° |
| 2026-05-07 15:19 | 54.10349 | -4.46403 | 3141 ft | 179 kts | 78° |
| 2026-05-07 15:19 | 54.10616 | -4.44209 | 3134 ft | 200 kts | 75° |
| 2026-05-07 15:19 | 54.10925 | -4.41747 | 3065 ft | 214 kts | 78° |
| 2026-05-07 15:19 | 54.11210 | -4.39339 | 3498 ft | 206 kts | 75° |
| 2026-05-07 15:20 | 54.11511 | -4.36873 | 3538 ft | 214 kts | 77° |
| 2026-05-07 15:20 | 54.11810 | -4.34396 | 3716 ft | 211 kts | 76° |
| 2026-05-07 15:20 | 54.12103 | -4.31964 | 3793 ft | 213 kts | 77° |
| 2026-05-07 15:20 | 54.12530 | -4.29558 | 3944 ft | 213 kts | 53° |
| 2026-05-07 15:21 | 54.13551 | -4.27910 | 4076 ft | 198 kts | 23° |
| 2026-05-07 15:21 | 54.14849 | -4.27518 | 3896 ft | 186 kts | 346° |
| 2026-05-07 15:21 | 54.15967 | -4.28294 | 3995 ft | 166 kts | 317° |
| 2026-05-07 15:21 | 54.16684 | -4.29808 | 3802 ft | 162 kts | 287° |
| 2026-05-07 15:22 | 54.16898 | -4.31587 | 3783 ft | 150 kts | 267° |